Capitol Logistics 977


HKJK
Jomo Kenyatta International Airport
Nairobi, KE
EBLG
Liège Airport
Liege, BE

Activity Log

Date Flight Route Aircraft Duration
No Flights Yet

Route Details

Aircraft Information
Primary: Boeing 767-300BDSF
Backup: Not Available
Route Data
Distance: 3502nm
Sched. Duration: 7h 34m
Avg. Duration: 0h 00m (-735m)
Times Flown: 0
Recm'd Route: Not Available
Planned Altitude: 34,000ft
Origin Wx: HKJK 231300Z 05014KT 9999 SCT028 26/15 Q1018 NOSIG
Dest. Wx: EBLG 231320Z 24027G39KT 5000 -DZ SCT009 BKN012 11/10 Q1013 TEMPO 3000 -DZ BKN009
Notes:

Financial History
Total Freight: 0lbs
Average Load: 0lbs/flt
Fuel Used: 0lbs
Avg. Fuel Used: 0lbs/flt
Fuel Expense: $0
Avg. Fuel Expense: $0
Avg. Fuel Cost: $0/lbs
Total Gross Income: $0
Pilot Pay: $0
Total Expenses: $0
Total Revenue: $0
Average Revenue: $0